Avondale, Missouri
Current Conditions -  °F | °C
As of 1:54 AM on Saturday 20 Dec 2014 (Local Time) from KMKC Reporting Station
Overcast Overcast  
Wind Chill: 30°   Ceiling: 900
Heat Index: 34°   Visibility: 9mi
Dew Point: 31°   Wind: 5mph
Humidity: 89%   Direction: 220°SW
Pressure: 30.19"   Gusts: NA
Location:  39.1657°N, 94.5231°W
Report Text: KMKC 200754Z 22004KT 9SM OVC009 01/M01 A3019 RMK AO2 SLP230 T00111006
Loading
Personal Weather Stations






























Interactive Weather Map New forecast layout! Learn more

10-Day Weather Forecast

Advertisements
Track Severe Weather on mobile